LIPY/AOI METAR and TAF weather

Enter ICAO airport designator
Station Type Date Time Source
LIPY METAR 2019/04/20 17:50 UTC NOAA

LIPY 201750Z VRB01KT CAVOK 14/12 Q1024


Station Type Date Time Source
LIPY Decoded METAR 2019/04/20 17:50 UTC NOAA

Falconara, Italy (LIPY) 43-37N 013-22E 10M
Apr 20, 2019 - 01:50 PM EDT / 2019.04.20 1750 UTC
Wind: Variable at 1 MPH (1 KT):0
Visibility: greater than 7 mile(s):0
Temperature: 57 F (14 C)
Dew Point: 53 F (12 C)
Relative Humidity: 87%
Pressure (altimeter): 30.24 in. Hg (1024 hPa)
ob: LIPY 201750Z VRB01KT CAVOK 14/12 Q1024
cycle: 18

Station Type Date Time Source
LIPY TAF 2019/04/20 18:21 UTC NOAA

TAF LIPY 201700Z 2018/2118 02007KT CAVOK
BECMG 2110/2112 14013KT

Example: see airport list